Terminal Aerodrome Forecast
Issued by NWS Corpus Christi, TX

Home | Current Version | Previous Version | Text Only | Print | Product List | Glossary On
Versions: 1 2 3 4 5 6 7 8 9 10 11 12 13 14 15 16 17 18
000
FTUS44 KCRP 010500
TAFCRP
TAF
KCRP 010526Z 0106/0206 13004KT P6SM FEW015
     FM010900 12006KT 5SM BR SCT015
      TEMPO 0110/0113 3SM BR
     FM011600 16010KT P6SM SCT035
     FM020100 14006KT P6SM FEW015=

USA.gov is the U.S. government's official web portal to all federal, state and local government web resources and services.